Terminal Aerodrome Forecast
Issued by NWS Greer, SC

Home | Current Version | Previous Version | Text Only | Print | Product List | Glossary On
Versions: 1 2 3 4 5 6 7 8 9 10 11 12
358
FTUS42 KGSP 192338
TAFGSP
TAF
KGSP 192338Z 2000/2024 VRB02KT P6SM SCT090 BKN250
     FM201500 26004KT P6SM SCT080 PROB30 2020/2024 4SM -TSRA
      BKN070CB=

USA.gov is the U.S. government's official web portal to all federal, state and local government web resources and services.